sensor_id;sensor_type;location;lat;lon;timestamp;temperature;humidity
41080;DHT22;26826;50.718;7.114;2023-06-22T00:00:19;22.30;99.90
41080;DHT22;26826;50.718;7.114;2023-06-22T00:10:21;22.30;99.90
41080;DHT22;26826;50.718;7.114;2023-06-22T00:20:22;22.30;99.90
41080;DHT22;26826;50.718;7.114;2023-06-22T00:30:23;22.10;99.90
41080;DHT22;26826;50.718;7.114;2023-06-22T00:40:23;22.30;99.90
41080;DHT22;26826;50.718;7.114;2023-06-22T00:50:26;22.30;99.90
41080;DHT22;26826;50.718;7.114;2023-06-22T01:00:27;22.20;99.90
41080;DHT22;26826;50.718;7.114;2023-06-22T01:21:00;22.20;99.90
41080;DHT22;26826;50.718;7.114;2023-06-22T01:31:02;22.20;99.90
41080;DHT22;26826;50.718;7.114;2023-06-22T01:41:06;22.30;99.90
41080;DHT22;26826;50.718;7.114;2023-06-22T01:51:06;22.30;99.90
41080;DHT22;26826;50.718;7.114;2023-06-22T02:01:10;22.20;99.90
41080;DHT22;26826;50.718;7.114;2023-06-22T02:11:11;22.10;99.90
41080;DHT22;26826;50.718;7.114;2023-06-22T02:21:12;22.00;99.90
41080;DHT22;26826;50.718;7.114;2023-06-22T02:31:13;22.00;99.90
41080;DHT22;26826;50.718;7.114;2023-06-22T02:41:14;21.90;99.90
41080;DHT22;26826;50.718;7.114;2023-06-22T02:51:18;21.80;99.90
41080;DHT22;26826;50.718;7.114;2023-06-22T03:01:18;21.60;99.90
41080;DHT22;26826;50.718;7.114;2023-06-22T03:11:24;21.60;99.90
41080;DHT22;26826;50.718;7.114;2023-06-22T03:21:28;21.60;99.90
41080;DHT22;26826;50.718;7.114;2023-06-22T03:31:29;21.40;99.90
41080;DHT22;26826;50.718;7.114;2023-06-22T03:41:29;21.70;99.90
41080;DHT22;26826;50.718;7.114;2023-06-22T04:02:32;21.40;99.90
41080;DHT22;26826;50.718;7.114;2023-06-22T04:12:32;21.30;99.90
41080;DHT22;26826;50.718;7.114;2023-06-22T04:22:33;21.20;99.90
41080;DHT22;26826;50.718;7.114;2023-06-22T04:32:34;21.20;99.90
41080;DHT22;26826;50.718;7.114;2023-06-22T04:42:38;21.40;99.90
41080;DHT22;26826;50.718;7.114;2023-06-22T04:52:39;21.40;99.90
41080;DHT22;26826;50.718;7.114;2023-06-22T05:02:40;21.20;99.90
41080;DHT22;26826;50.718;7.114;2023-06-22T05:12:41;21.20;99.90
41080;DHT22;26826;50.718;7.114;2023-06-22T05:22:41;21.30;99.90
41080;DHT22;26826;50.718;7.114;2023-06-22T05:32:43;21.40;99.90
41080;DHT22;26826;50.718;7.114;2023-06-22T05:42:44;21.60;99.90
41080;DHT22;26826;50.718;7.114;2023-06-22T05:52:45;22.10;99.90
41080;DHT22;26826;50.718;7.114;2023-06-22T06:02:45;22.30;99.90
41080;DHT22;26826;50.718;7.114;2023-06-22T06:12:46;22.70;99.90
41080;DHT22;26826;50.718;7.114;2023-06-22T06:22:47;22.90;99.90
41080;DHT22;26826;50.718;7.114;2023-06-22T06:32:47;23.40;99.90
41080;DHT22;26826;50.718;7.114;2023-06-22T06:42:48;23.80;99.90
41080;DHT22;26826;50.718;7.114;2023-06-22T06:52:49;23.80;99.90
41080;DHT22;26826;50.718;7.114;2023-06-22T07:02:51;23.90;99.90
41080;DHT22;26826;50.718;7.114;2023-06-22T07:12:51;24.00;99.90
41080;DHT22;26826;50.718;7.114;2023-06-22T07:22:52;24.40;99.90
41080;DHT22;26826;50.718;7.114;2023-06-22T07:32:53;24.80;99.90
41080;DHT22;26826;50.718;7.114;2023-06-22T07:42:54;25.00;99.90
41080;DHT22;26826;50.718;7.114;2023-06-22T07:52:55;25.70;99.90
41080;DHT22;26826;50.718;7.114;2023-06-22T08:02:55;26.40;99.90
41080;DHT22;26826;50.718;7.114;2023-06-22T08:12:56;26.90;99.90
41080;DHT22;26826;50.718;7.114;2023-06-22T08:22:57;27.70;99.90
41080;DHT22;26826;50.718;7.114;2023-06-22T08:33:00;28.70;99.90
41080;DHT22;26826;50.718;7.114;2023-06-22T08:43:01;29.50;99.90
41080;DHT22;26826;50.718;7.114;2023-06-22T08:53:01;30.10;99.90
41080;DHT22;26826;50.718;7.114;2023-06-22T09:03:02;30.40;99.90
41080;DHT22;26826;50.718;7.114;2023-06-22T09:13:02;29.60;99.90
41080;DHT22;26826;50.718;7.114;2023-06-22T09:23:03;28.90;99.90
41080;DHT22;26826;50.718;7.114;2023-06-22T09:33:03;29.50;99.90
41080;DHT22;26826;50.718;7.114;2023-06-22T09:43:04;29.50;99.90
41080;DHT22;26826;50.718;7.114;2023-06-22T09:53:04;30.00;99.90
41080;DHT22;26826;50.718;7.114;2023-06-22T10:03:05;28.80;99.90
41080;DHT22;26826;50.718;7.114;2023-06-22T10:13:10;28.10;99.90
41080;DHT22;26826;50.718;7.114;2023-06-22T10:23:11;28.00;99.90
41080;DHT22;26826;50.718;7.114;2023-06-22T10:33:12;27.70;99.90
41080;DHT22;26826;50.718;7.114;2023-06-22T10:43:12;27.20;99.90
41080;DHT22;26826;50.718;7.114;2023-06-22T10:53:13;26.20;99.90
41080;DHT22;26826;50.718;7.114;2023-06-22T11:03:13;24.20;99.90
41080;DHT22;26826;50.718;7.114;2023-06-22T11:13:14;22.80;99.90
41080;DHT22;26826;50.718;7.114;2023-06-22T11:23:15;22.60;99.90
41080;DHT22;26826;50.718;7.114;2023-06-22T11:33:15;22.60;99.90
41080;DHT22;26826;50.718;7.114;2023-06-22T11:43:16;23.00;99.90
41080;DHT22;26826;50.718;7.114;2023-06-22T11:53:16;24.20;99.90
41080;DHT22;26826;50.718;7.114;2023-06-22T12:03:18;24.90;99.90
41080;DHT22;26826;50.718;7.114;2023-06-22T12:13:19;24.70;99.90
41080;DHT22;26826;50.718;7.114;2023-06-22T12:23:19;24.40;99.90
41080;DHT22;26826;50.718;7.114;2023-06-22T12:33:20;24.20;99.90
41080;DHT22;26826;50.718;7.114;2023-06-22T12:43:20;24.80;99.90
41080;DHT22;26826;50.718;7.114;2023-06-22T12:53:21;26.70;99.90
41080;DHT22;26826;50.718;7.114;2023-06-22T13:03:23;27.50;99.90
41080;DHT22;26826;50.718;7.114;2023-06-22T13:13:26;28.00;99.90
41080;DHT22;26826;50.718;7.114;2023-06-22T13:23:30;28.60;99.90
41080;DHT22;26826;50.718;7.114;2023-06-22T13:33:30;29.30;99.90
41080;DHT22;26826;50.718;7.114;2023-06-22T13:43:31;29.60;99.90
41080;DHT22;26826;50.718;7.114;2023-06-22T13:53:32;30.40;99.90
41080;DHT22;26826;50.718;7.114;2023-06-22T14:03:32;30.20;99.90
41080;DHT22;26826;50.718;7.114;2023-06-22T14:13:33;29.70;99.90
41080;DHT22;26826;50.718;7.114;2023-06-22T14:23:36;28.80;99.90
41080;DHT22;26826;50.718;7.114;2023-06-22T14:33:49;27.80;99.90
41080;DHT22;26826;50.718;7.114;2023-06-22T14:43:50;26.90;99.90
41080;DHT22;26826;50.718;7.114;2023-06-22T14:53:50;24.20;99.90
41080;DHT22;26826;50.718;7.114;2023-06-22T15:03:51;23.10;99.90
41080;DHT22;26826;50.718;7.114;2023-06-22T15:13:51;22.60;99.90
41080;DHT22;26826;50.718;7.114;2023-06-22T15:33:55;22.20;99.90
41080;DHT22;26826;50.718;7.114;2023-06-22T15:43:56;22.10;99.90
41080;DHT22;26826;50.718;7.114;2023-06-22T15:53:57;22.00;99.90
41080;DHT22;26826;50.718;7.114;2023-06-22T16:03:57;22.10;99.90
41080;DHT22;26826;50.718;7.114;2023-06-22T16:13:58;22.00;99.90
41080;DHT22;26826;50.718;7.114;2023-06-22T16:23:58;21.90;99.90
41080;DHT22;26826;50.718;7.114;2023-06-22T16:33:59;21.70;99.90
41080;DHT22;26826;50.718;7.114;2023-06-22T16:43:59;21.50;99.90
41080;DHT22;26826;50.718;7.114;2023-06-22T16:54:05;21.60;99.90
41080;DHT22;26826;50.718;7.114;2023-06-22T17:04:07;21.80;99.90
41080;DHT22;26826;50.718;7.114;2023-06-22T17:14:09;22.10;99.90
41080;DHT22;26826;50.718;7.114;2023-06-22T17:24:12;22.30;99.90
41080;DHT22;26826;50.718;7.114;2023-06-22T17:34:16;22.30;99.90
41080;DHT22;26826;50.718;7.114;2023-06-22T17:44:23;22.40;99.90
41080;DHT22;26826;50.718;7.114;2023-06-22T17:54:29;22.60;99.90
41080;DHT22;26826;50.718;7.114;2023-06-22T18:04:32;22.40;99.90
41080;DHT22;26826;50.718;7.114;2023-06-22T18:14:32;22.40;99.90
41080;DHT22;26826;50.718;7.114;2023-06-22T18:24:34;22.50;99.90
41080;DHT22;26826;50.718;7.114;2023-06-22T18:34:35;22.70;99.90
41080;DHT22;26826;50.718;7.114;2023-06-22T18:44:40;22.50;99.90
41080;DHT22;26826;50.718;7.114;2023-06-22T18:54:47;22.50;99.90
41080;DHT22;26826;50.718;7.114;2023-06-22T19:04:48;22.40;99.90
41080;DHT22;26826;50.718;7.114;2023-06-22T19:15:10;22.00;99.90
41080;DHT22;26826;50.718;7.114;2023-06-22T19:25:41;21.40;99.90
41080;DHT22;26826;50.718;7.114;2023-06-22T19:35:45;20.60;99.90
41080;DHT22;26826;50.718;7.114;2023-06-22T19:45:47;20.00;99.90
41080;DHT22;26826;50.718;7.114;2023-06-22T19:55:49;19.70;99.90
41080;DHT22;26826;50.718;7.114;2023-06-22T20:05:49;19.50;99.90
41080;DHT22;26826;50.718;7.114;2023-06-22T20:15:50;19.30;99.90
41080;DHT22;26826;50.718;7.114;2023-06-22T20:25:51;19.10;99.90
41080;DHT22;26826;50.718;7.114;2023-06-22T20:35:54;18.70;99.90
41080;DHT22;26826;50.718;7.114;2023-06-22T20:45:54;18.40;99.90
41080;DHT22;26826;50.718;7.114;2023-06-22T20:55:55;18.10;99.90
41080;DHT22;26826;50.718;7.114;2023-06-22T21:05:55;18.00;99.90
41080;DHT22;26826;50.718;7.114;2023-06-22T21:15:57;18.10;99.90
41080;DHT22;26826;50.718;7.114;2023-06-22T21:25:57;18.20;99.90
41080;DHT22;26826;50.718;7.114;2023-06-22T21:35:58;18.30;99.90
41080;DHT22;26826;50.718;7.114;2023-06-22T21:45:58;18.40;99.90
41080;DHT22;26826;50.718;7.114;2023-06-22T21:56:19;18.40;99.90
41080;DHT22;26826;50.718;7.114;2023-06-22T22:06:20;18.30;99.90
41080;DHT22;26826;50.718;7.114;2023-06-22T22:16:21;18.20;99.90
41080;DHT22;26826;50.718;7.114;2023-06-22T22:26:21;18.20;99.90
41080;DHT22;26826;50.718;7.114;2023-06-22T22:36:22;18.30;99.90
41080;DHT22;26826;50.718;7.114;2023-06-22T22:46:22;18.30;99.90
41080;DHT22;26826;50.718;7.114;2023-06-22T22:56:23;18.40;99.90
41080;DHT22;26826;50.718;7.114;2023-06-22T23:06:24;18.40;99.90
41080;DHT22;26826;50.718;7.114;2023-06-22T23:16:28;18.40;99.90
41080;DHT22;26826;50.718;7.114;2023-06-22T23:26:29;18.40;99.90
41080;DHT22;26826;50.718;7.114;2023-06-22T23:36:29;18.60;99.90
41080;DHT22;26826;50.718;7.114;2023-06-22T23:46:30;18.50;99.90
41080;DHT22;26826;50.718;7.114;2023-06-22T23:56:31;18.50;99.90
